Accueil
METAR-TAF:

METAR-TAF

Aéroports :

Plate-forme pétrolière

Hoorn-a, Pays-Bas

latitude: 52-55-05N, longitude: 4-09-01E, altitude: 41 m

Observation

Le bulletin a été fait il y a 23 minutes, à 19:25 UTC
Vent 10 kt de ouest
Température 6°C
Humidité 87%
Pression 1038 hPa
Visibilité 10 km ou plus
Quelques nuages à une hauteur de 900 ft
Nuages épars à une hauteur de 1100 ft
Nuages fragmentés à une hauteur de 1300 ft

METAR: EHQE 211925Z AUTO 26010KT 9999 FEW009 SCT011 BKN013 06/04 Q1038

Heure: 20:48 (19:48 UTC)


TAF: absent

Observations et prévisions météorologiques de plus de 4000 aéroports (messages METAR et TAF).

Les stations disponibles sont représentées par des disques jaunes et rouges sur la carte.

Passer la souris dessus pour voir le nom de la station.

Cliquer dessus pour voir les observations et prévisions météorologiques.

Pour changer de carte: cliquez sur les boutons verts avec une croix noire pour zoomer, sur le bouton vert avec un tiret pour effectuer un zoom arrière, ou sur les flèches vertes pour les cartes adjacentes.


METAR-TAF: